sensor_id;sensor_type;location;lat;lon;timestamp;P1;durP1;ratioP1;P2;durP2;ratioP2
17790;SDS011;9019;48.132;-1.210;2022-07-23T00:00:06;7.83;;;4.70;;
17790;SDS011;9019;48.132;-1.210;2022-07-23T00:02:34;6.13;;;4.67;;
17790;SDS011;9019;48.132;-1.210;2022-07-23T00:05:01;7.40;;;5.27;;
17790;SDS011;9019;48.132;-1.210;2022-07-23T00:07:28;10.33;;;5.17;;
17790;SDS011;9019;48.132;-1.210;2022-07-23T00:09:55;7.97;;;5.30;;
17790;SDS011;9019;48.132;-1.210;2022-07-23T00:12:22;10.53;;;5.10;;
17790;SDS011;9019;48.132;-1.210;2022-07-23T00:14:50;9.97;;;5.43;;
17790;SDS011;9019;48.132;-1.210;2022-07-23T00:17:17;7.87;;;4.80;;
17790;SDS011;9019;48.132;-1.210;2022-07-23T00:19:44;10.43;;;5.07;;
17790;SDS011;9019;48.132;-1.210;2022-07-23T00:22:11;9.73;;;5.20;;
17790;SDS011;9019;48.132;-1.210;2022-07-23T00:24:38;9.70;;;5.50;;
17790;SDS011;9019;48.132;-1.210;2022-07-23T00:27:05;10.03;;;5.33;;
17790;SDS011;9019;48.132;-1.210;2022-07-23T00:29:32;11.27;;;5.10;;
17790;SDS011;9019;48.132;-1.210;2022-07-23T00:32:00;8.13;;;6.00;;
17790;SDS011;9019;48.132;-1.210;2022-07-23T00:34:27;9.27;;;5.67;;
17790;SDS011;9019;48.132;-1.210;2022-07-23T00:36:54;7.63;;;4.80;;
17790;SDS011;9019;48.132;-1.210;2022-07-23T00:39:21;7.93;;;5.40;;
17790;SDS011;9019;48.132;-1.210;2022-07-23T00:41:48;11.77;;;5.97;;
17790;SDS011;9019;48.132;-1.210;2022-07-23T00:44:19;7.97;;;5.70;;
17790;SDS011;9019;48.132;-1.210;2022-07-23T00:46:49;9.00;;;5.37;;
17790;SDS011;9019;48.132;-1.210;2022-07-23T00:49:20;9.83;;;5.83;;
17790;SDS011;9019;48.132;-1.210;2022-07-23T00:51:48;13.77;;;6.20;;
17790;SDS011;9019;48.132;-1.210;2022-07-23T00:54:15;11.33;;;6.40;;
17790;SDS011;9019;48.132;-1.210;2022-07-23T00:56:43;13.17;;;6.53;;
17790;SDS011;9019;48.132;-1.210;2022-07-23T00:59:12;13.10;;;6.67;;
17790;SDS011;9019;48.132;-1.210;2022-07-23T01:01:39;11.33;;;5.73;;
17790;SDS011;9019;48.132;-1.210;2022-07-23T01:04:07;12.77;;;6.63;;
17790;SDS011;9019;48.132;-1.210;2022-07-23T01:06:36;12.20;;;5.97;;
17790;SDS011;9019;48.132;-1.210;2022-07-23T01:09:04;13.90;;;6.07;;
17790;SDS011;9019;48.132;-1.210;2022-07-23T01:11:32;14.93;;;6.07;;
17790;SDS011;9019;48.132;-1.210;2022-07-23T01:14:07;10.60;;;6.10;;
17790;SDS011;9019;48.132;-1.210;2022-07-23T01:16:35;12.03;;;5.90;;
17790;SDS011;9019;48.132;-1.210;2022-07-23T01:19:02;10.20;;;5.80;;
17790;SDS011;9019;48.132;-1.210;2022-07-23T01:21:31;9.73;;;5.93;;
17790;SDS011;9019;48.132;-1.210;2022-07-23T01:24:03;13.70;;;5.83;;
17790;SDS011;9019;48.132;-1.210;2022-07-23T01:26:31;10.40;;;5.90;;
17790;SDS011;9019;48.132;-1.210;2022-07-23T01:28:58;8.73;;;5.77;;
17790;SDS011;9019;48.132;-1.210;2022-07-23T01:31:25;12.27;;;6.47;;
17790;SDS011;9019;48.132;-1.210;2022-07-23T01:33:52;10.60;;;5.90;;
17790;SDS011;9019;48.132;-1.210;2022-07-23T01:36:19;11.47;;;5.77;;
17790;SDS011;9019;48.132;-1.210;2022-07-23T01:38:46;11.73;;;5.83;;
17790;SDS011;9019;48.132;-1.210;2022-07-23T01:41:14;8.83;;;6.03;;
17790;SDS011;9019;48.132;-1.210;2022-07-23T01:43:41;8.63;;;5.77;;
17790;SDS011;9019;48.132;-1.210;2022-07-23T01:46:08;7.37;;;6.00;;
17790;SDS011;9019;48.132;-1.210;2022-07-23T01:48:35;10.07;;;6.20;;
17790;SDS011;9019;48.132;-1.210;2022-07-23T01:51:02;13.30;;;5.90;;
17790;SDS011;9019;48.132;-1.210;2022-07-23T01:53:29;11.93;;;6.37;;
17790;SDS011;9019;48.132;-1.210;2022-07-23T01:55:57;10.93;;;5.80;;
17790;SDS011;9019;48.132;-1.210;2022-07-23T01:58:26;10.07;;;5.93;;
17790;SDS011;9019;48.132;-1.210;2022-07-23T02:00:53;10.40;;;5.40;;
17790;SDS011;9019;48.132;-1.210;2022-07-23T02:03:21;12.97;;;6.57;;
17790;SDS011;9019;48.132;-1.210;2022-07-23T02:05:49;13.50;;;6.20;;
17790;SDS011;9019;48.132;-1.210;2022-07-23T02:08:16;10.10;;;6.33;;
17790;SDS011;9019;48.132;-1.210;2022-07-23T02:10:43;12.90;;;6.57;;
17790;SDS011;9019;48.132;-1.210;2022-07-23T02:13:11;8.83;;;6.50;;
17790;SDS011;9019;48.132;-1.210;2022-07-23T02:15:39;11.67;;;6.50;;
17790;SDS011;9019;48.132;-1.210;2022-07-23T02:18:06;8.73;;;6.40;;
17790;SDS011;9019;48.132;-1.210;2022-07-23T02:20:34;12.50;;;6.63;;
17790;SDS011;9019;48.132;-1.210;2022-07-23T02:23:03;10.73;;;5.90;;
17790;SDS011;9019;48.132;-1.210;2022-07-23T02:25:30;7.53;;;6.20;;
17790;SDS011;9019;48.132;-1.210;2022-07-23T02:27:57;11.20;;;6.30;;
17790;SDS011;9019;48.132;-1.210;2022-07-23T02:30:24;10.33;;;6.03;;
17790;SDS011;9019;48.132;-1.210;2022-07-23T02:32:53;9.77;;;5.97;;
17790;SDS011;9019;48.132;-1.210;2022-07-23T02:35:20;9.27;;;5.90;;
17790;SDS011;9019;48.132;-1.210;2022-07-23T02:37:47;12.70;;;6.83;;
17790;SDS011;9019;48.132;-1.210;2022-07-23T02:40:14;9.60;;;6.67;;
17790;SDS011;9019;48.132;-1.210;2022-07-23T02:42:41;13.43;;;6.77;;
17790;SDS011;9019;48.132;-1.210;2022-07-23T02:45:08;11.53;;;6.50;;
17790;SDS011;9019;48.132;-1.210;2022-07-23T02:47:36;13.13;;;6.93;;
17790;SDS011;9019;48.132;-1.210;2022-07-23T02:50:05;10.43;;;6.40;;
17790;SDS011;9019;48.132;-1.210;2022-07-23T02:52:32;10.60;;;6.23;;
17790;SDS011;9019;48.132;-1.210;2022-07-23T02:54:59;10.67;;;6.67;;
17790;SDS011;9019;48.132;-1.210;2022-07-23T02:57:26;9.23;;;6.30;;
17790;SDS011;9019;48.132;-1.210;2022-07-23T02:59:53;12.10;;;7.40;;
17790;SDS011;9019;48.132;-1.210;2022-07-23T03:02:20;11.80;;;7.00;;
17790;SDS011;9019;48.132;-1.210;2022-07-23T03:04:48;11.80;;;6.63;;
17790;SDS011;9019;48.132;-1.210;2022-07-23T03:07:17;12.70;;;7.20;;
17790;SDS011;9019;48.132;-1.210;2022-07-23T03:09:44;13.00;;;6.87;;
17790;SDS011;9019;48.132;-1.210;2022-07-23T03:12:11;13.27;;;6.97;;
17790;SDS011;9019;48.132;-1.210;2022-07-23T03:14:38;12.87;;;7.23;;
17790;SDS011;9019;48.132;-1.210;2022-07-23T03:17:05;10.80;;;7.40;;
17790;SDS011;9019;48.132;-1.210;2022-07-23T03:19:32;11.23;;;7.30;;
17790;SDS011;9019;48.132;-1.210;2022-07-23T03:21:59;10.27;;;7.50;;
17790;SDS011;9019;48.132;-1.210;2022-07-23T03:24:27;12.47;;;7.37;;
17790;SDS011;9019;48.132;-1.210;2022-07-23T03:27:14;12.63;;;7.40;;
17790;SDS011;9019;48.132;-1.210;2022-07-23T03:29:41;12.03;;;6.93;;
17790;SDS011;9019;48.132;-1.210;2022-07-23T03:32:08;10.80;;;7.07;;
17790;SDS011;9019;48.132;-1.210;2022-07-23T03:34:35;11.07;;;6.80;;
17790;SDS011;9019;48.132;-1.210;2022-07-23T03:37:02;10.80;;;7.27;;
17790;SDS011;9019;48.132;-1.210;2022-07-23T03:39:31;12.37;;;6.87;;
17790;SDS011;9019;48.132;-1.210;2022-07-23T03:41:58;10.20;;;6.60;;
17790;SDS011;9019;48.132;-1.210;2022-07-23T03:44:25;10.83;;;6.50;;
17790;SDS011;9019;48.132;-1.210;2022-07-23T03:46:52;10.27;;;6.70;;
17790;SDS011;9019;48.132;-1.210;2022-07-23T03:49:19;13.47;;;6.70;;
17790;SDS011;9019;48.132;-1.210;2022-07-23T03:51:46;10.67;;;6.50;;
17790;SDS011;9019;48.132;-1.210;2022-07-23T03:54:13;14.57;;;6.83;;
17790;SDS011;9019;48.132;-1.210;2022-07-23T03:56:41;9.83;;;7.10;;
17790;SDS011;9019;48.132;-1.210;2022-07-23T03:59:08;12.13;;;8.00;;
17790;SDS011;9019;48.132;-1.210;2022-07-23T04:01:36;12.30;;;7.67;;
17790;SDS011;9019;48.132;-1.210;2022-07-23T04:04:04;11.43;;;7.60;;
17790;SDS011;9019;48.132;-1.210;2022-07-23T04:06:31;9.87;;;7.07;;
17790;SDS011;9019;48.132;-1.210;2022-07-23T04:08:58;13.30;;;7.40;;
17790;SDS011;9019;48.132;-1.210;2022-07-23T04:11:25;8.97;;;7.13;;
17790;SDS011;9019;48.132;-1.210;2022-07-23T04:13:54;12.47;;;7.50;;
17790;SDS011;9019;48.132;-1.210;2022-07-23T04:16:21;14.27;;;8.10;;
17790;SDS011;9019;48.132;-1.210;2022-07-23T04:18:47;12.07;;;7.63;;
17790;SDS011;9019;48.132;-1.210;2022-07-23T04:21:14;11.43;;;8.13;;
17790;SDS011;9019;48.132;-1.210;2022-07-23T04:23:41;13.83;;;8.17;;
17790;SDS011;9019;48.132;-1.210;2022-07-23T04:26:08;13.73;;;8.37;;
17790;SDS011;9019;48.132;-1.210;2022-07-23T04:28:35;11.37;;;8.53;;
17790;SDS011;9019;48.132;-1.210;2022-07-23T04:31:04;13.37;;;7.87;;
17790;SDS011;9019;48.132;-1.210;2022-07-23T04:33:31;11.60;;;8.37;;
17790;SDS011;9019;48.132;-1.210;2022-07-23T04:35:59;14.37;;;8.30;;
17790;SDS011;9019;48.132;-1.210;2022-07-23T04:38:26;11.30;;;7.93;;
17790;SDS011;9019;48.132;-1.210;2022-07-23T04:40:53;12.33;;;8.03;;
17790;SDS011;9019;48.132;-1.210;2022-07-23T04:43:20;12.53;;;8.97;;
17790;SDS011;9019;48.132;-1.210;2022-07-23T04:45:46;11.97;;;8.03;;
17790;SDS011;9019;48.132;-1.210;2022-07-23T04:48:15;13.43;;;8.27;;
17790;SDS011;9019;48.132;-1.210;2022-07-23T04:50:42;14.97;;;9.30;;
17790;SDS011;9019;48.132;-1.210;2022-07-23T04:53:09;16.67;;;9.07;;
17790;SDS011;9019;48.132;-1.210;2022-07-23T04:55:36;13.70;;;9.43;;
17790;SDS011;9019;48.132;-1.210;2022-07-23T04:58:03;11.03;;;8.73;;
17790;SDS011;9019;48.132;-1.210;2022-07-23T05:00:29;14.37;;;9.53;;
17790;SDS011;9019;48.132;-1.210;2022-07-23T05:02:56;13.43;;;9.00;;
17790;SDS011;9019;48.132;-1.210;2022-07-23T05:05:24;17.70;;;10.00;;
17790;SDS011;9019;48.132;-1.210;2022-07-23T05:07:51;16.13;;;10.43;;
17790;SDS011;9019;48.132;-1.210;2022-07-23T05:10:18;14.77;;;10.60;;
17790;SDS011;9019;48.132;-1.210;2022-07-23T05:12:45;14.37;;;10.17;;
17790;SDS011;9019;48.132;-1.210;2022-07-23T05:15:12;13.77;;;10.50;;
17790;SDS011;9019;48.132;-1.210;2022-07-23T05:17:39;16.83;;;10.13;;
17790;SDS011;9019;48.132;-1.210;2022-07-23T05:20:06;16.83;;;10.63;;
17790;SDS011;9019;48.132;-1.210;2022-07-23T05:22:35;19.93;;;10.03;;
17790;SDS011;9019;48.132;-1.210;2022-07-23T05:25:02;16.33;;;10.20;;
17790;SDS011;9019;48.132;-1.210;2022-07-23T05:27:29;13.13;;;10.17;;
17790;SDS011;9019;48.132;-1.210;2022-07-23T05:29:57;15.10;;;10.10;;
17790;SDS011;9019;48.132;-1.210;2022-07-23T05:32:24;14.40;;;9.17;;
17790;SDS011;9019;48.132;-1.210;2022-07-23T05:34:52;12.33;;;9.70;;
17790;SDS011;9019;48.132;-1.210;2022-07-23T05:37:18;12.33;;;8.37;;
17790;SDS011;9019;48.132;-1.210;2022-07-23T05:39:48;14.00;;;9.27;;
17790;SDS011;9019;48.132;-1.210;2022-07-23T05:42:15;12.40;;;8.83;;
17790;SDS011;9019;48.132;-1.210;2022-07-23T05:44:42;11.40;;;8.03;;
17790;SDS011;9019;48.132;-1.210;2022-07-23T05:47:09;13.87;;;7.37;;
17790;SDS011;9019;48.132;-1.210;2022-07-23T05:49:36;9.53;;;7.10;;
17790;SDS011;9019;48.132;-1.210;2022-07-23T05:52:04;9.93;;;7.30;;
17790;SDS011;9019;48.132;-1.210;2022-07-23T05:54:33;8.63;;;6.67;;
17790;SDS011;9019;48.132;-1.210;2022-07-23T05:57:02;10.90;;;7.53;;
17790;SDS011;9019;48.132;-1.210;2022-07-23T05:59:30;11.67;;;7.07;;
17790;SDS011;9019;48.132;-1.210;2022-07-23T06:01:57;11.33;;;7.40;;
17790;SDS011;9019;48.132;-1.210;2022-07-23T06:04:24;11.10;;;7.07;;
17790;SDS011;9019;48.132;-1.210;2022-07-23T06:06:51;12.33;;;8.07;;
17790;SDS011;9019;48.132;-1.210;2022-07-23T06:09:18;11.53;;;7.53;;
17790;SDS011;9019;48.132;-1.210;2022-07-23T06:11:45;9.10;;;7.10;;
17790;SDS011;9019;48.132;-1.210;2022-07-23T06:14:13;11.13;;;7.23;;
17790;SDS011;9019;48.132;-1.210;2022-07-23T06:16:40;8.97;;;7.13;;
17790;SDS011;9019;48.132;-1.210;2022-07-23T06:19:07;11.23;;;7.03;;
17790;SDS011;9019;48.132;-1.210;2022-07-23T06:21:34;8.60;;;6.73;;
17790;SDS011;9019;48.132;-1.210;2022-07-23T06:24:02;10.43;;;7.23;;
17790;SDS011;9019;48.132;-1.210;2022-07-23T06:26:29;10.40;;;7.07;;
17790;SDS011;9019;48.132;-1.210;2022-07-23T06:28:56;13.37;;;7.47;;
17790;SDS011;9019;48.132;-1.210;2022-07-23T06:31:24;10.10;;;7.03;;
17790;SDS011;9019;48.132;-1.210;2022-07-23T06:33:51;11.27;;;7.20;;
17790;SDS011;9019;48.132;-1.210;2022-07-23T06:36:18;10.87;;;6.53;;
17790;SDS011;9019;48.132;-1.210;2022-07-23T06:38:45;10.37;;;7.67;;
17790;SDS011;9019;48.132;-1.210;2022-07-23T06:41:12;8.33;;;7.37;;
17790;SDS011;9019;48.132;-1.210;2022-07-23T06:43:39;9.93;;;7.60;;
17790;SDS011;9019;48.132;-1.210;2022-07-23T06:46:06;10.07;;;7.23;;
17790;SDS011;9019;48.132;-1.210;2022-07-23T06:48:34;10.80;;;7.00;;
17790;SDS011;9019;48.132;-1.210;2022-07-23T06:51:01;9.90;;;7.07;;
17790;SDS011;9019;48.132;-1.210;2022-07-23T06:53:28;7.57;;;6.73;;
17790;SDS011;9019;48.132;-1.210;2022-07-23T06:55:55;10.03;;;7.00;;
17790;SDS011;9019;48.132;-1.210;2022-07-23T06:58:22;9.40;;;6.53;;
17790;SDS011;9019;48.132;-1.210;2022-07-23T07:00:49;10.27;;;7.37;;
17790;SDS011;9019;48.132;-1.210;2022-07-23T07:03:17;10.00;;;6.57;;
17790;SDS011;9019;48.132;-1.210;2022-07-23T07:05:45;10.03;;;7.27;;
17790;SDS011;9019;48.132;-1.210;2022-07-23T07:08:12;9.67;;;7.00;;
17790;SDS011;9019;48.132;-1.210;2022-07-23T07:10:39;10.05;;;6.93;;
17790;SDS011;9019;48.132;-1.210;2022-07-23T07:13:06;9.00;;;6.80;;
17790;SDS011;9019;48.132;-1.210;2022-07-23T07:15:33;9.70;;;6.22;;
17790;SDS011;9019;48.132;-1.210;2022-07-23T07:18:00;9.77;;;5.78;;
17790;SDS011;9019;48.132;-1.210;2022-07-23T07:20:27;8.95;;;5.70;;
17790;SDS011;9019;48.132;-1.210;2022-07-23T07:22:55;8.05;;;5.32;;
17790;SDS011;9019;48.132;-1.210;2022-07-23T07:25:22;7.60;;;4.50;;
17790;SDS011;9019;48.132;-1.210;2022-07-23T07:27:49;9.07;;;4.65;;
17790;SDS011;9019;48.132;-1.210;2022-07-23T07:30:17;11.13;;;6.00;;
17790;SDS011;9019;48.132;-1.210;2022-07-23T07:32:44;12.93;;;5.80;;
17790;SDS011;9019;48.132;-1.210;2022-07-23T07:35:11;8.15;;;5.43;;
17790;SDS011;9019;48.132;-1.210;2022-07-23T07:37:38;6.35;;;4.45;;
17790;SDS011;9019;48.132;-1.210;2022-07-23T07:40:08;9.95;;;5.47;;
17790;SDS011;9019;48.132;-1.210;2022-07-23T07:42:43;22.05;;;10.38;;
17790;SDS011;9019;48.132;-1.210;2022-07-23T07:45:11;6.00;;;4.95;;
17790;SDS011;9019;48.132;-1.210;2022-07-23T07:47:39;13.27;;;5.93;;
17790;SDS011;9019;48.132;-1.210;2022-07-23T07:50:20;21.88;;;9.27;;
17790;SDS011;9019;48.132;-1.210;2022-07-23T07:52:55;6.20;;;4.10;;
17790;SDS011;9019;48.132;-1.210;2022-07-23T07:55:24;10.20;;;5.03;;
17790;SDS011;9019;48.132;-1.210;2022-07-23T07:57:52;7.82;;;4.60;;
17790;SDS011;9019;48.132;-1.210;2022-07-23T08:00:19;22.83;;;9.68;;
17790;SDS011;9019;48.132;-1.210;2022-07-23T08:02:47;9.30;;;4.97;;
17790;SDS011;9019;48.132;-1.210;2022-07-23T08:05:14;8.43;;;4.57;;
17790;SDS011;9019;48.132;-1.210;2022-07-23T08:07:42;8.43;;;4.97;;
17790;SDS011;9019;48.132;-1.210;2022-07-23T08:10:09;7.45;;;5.18;;
17790;SDS011;9019;48.132;-1.210;2022-07-23T08:12:42;7.45;;;4.75;;
17790;SDS011;9019;48.132;-1.210;2022-07-23T08:15:10;8.18;;;4.25;;
17790;SDS011;9019;48.132;-1.210;2022-07-23T08:17:38;6.95;;;5.00;;
17790;SDS011;9019;48.132;-1.210;2022-07-23T08:20:05;8.52;;;4.18;;
17790;SDS011;9019;48.132;-1.210;2022-07-23T08:22:42;7.50;;;4.65;;
17790;SDS011;9019;48.132;-1.210;2022-07-23T08:25:10;8.00;;;4.88;;
17790;SDS011;9019;48.132;-1.210;2022-07-23T08:27:37;9.93;;;5.30;;
17790;SDS011;9019;48.132;-1.210;2022-07-23T08:30:06;8.63;;;4.78;;
17790;SDS011;9019;48.132;-1.210;2022-07-23T08:32:34;10.60;;;5.05;;
17790;SDS011;9019;48.132;-1.210;2022-07-23T08:35:14;9.85;;;4.78;;
17790;SDS011;9019;48.132;-1.210;2022-07-23T08:37:41;9.77;;;5.13;;
17790;SDS011;9019;48.132;-1.210;2022-07-23T08:40:08;10.40;;;5.65;;
17790;SDS011;9019;48.132;-1.210;2022-07-23T08:42:36;11.70;;;5.50;;
17790;SDS011;9019;48.132;-1.210;2022-07-23T08:45:03;7.97;;;5.00;;
17790;SDS011;9019;48.132;-1.210;2022-07-23T08:47:32;8.80;;;5.28;;
17790;SDS011;9019;48.132;-1.210;2022-07-23T08:49:59;10.05;;;5.55;;
17790;SDS011;9019;48.132;-1.210;2022-07-23T08:52:27;11.88;;;5.57;;
17790;SDS011;9019;48.132;-1.210;2022-07-23T08:54:54;11.25;;;4.85;;
17790;SDS011;9019;48.132;-1.210;2022-07-23T08:57:21;10.48;;;4.93;;
17790;SDS011;9019;48.132;-1.210;2022-07-23T08:59:49;10.32;;;5.43;;
17790;SDS011;9019;48.132;-1.210;2022-07-23T09:02:16;11.80;;;5.47;;
17790;SDS011;9019;48.132;-1.210;2022-07-23T09:04:44;10.52;;;5.35;;
17790;SDS011;9019;48.132;-1.210;2022-07-23T09:07:11;9.00;;;5.40;;
17790;SDS011;9019;48.132;-1.210;2022-07-23T09:09:39;6.82;;;5.00;;
17790;SDS011;9019;48.132;-1.210;2022-07-23T09:12:07;10.70;;;5.25;;
17790;SDS011;9019;48.132;-1.210;2022-07-23T09:14:38;9.57;;;5.10;;
17790;SDS011;9019;48.132;-1.210;2022-07-23T09:17:10;9.40;;;4.95;;
17790;SDS011;9019;48.132;-1.210;2022-07-23T09:19:37;9.00;;;4.90;;
17790;SDS011;9019;48.132;-1.210;2022-07-23T09:22:18;11.90;;;5.20;;
17790;SDS011;9019;48.132;-1.210;2022-07-23T09:25:05;8.43;;;5.53;;
17790;SDS011;9019;48.132;-1.210;2022-07-23T09:27:47;8.23;;;4.90;;
17790;SDS011;9019;48.132;-1.210;2022-07-23T09:30:15;8.10;;;5.10;;
17790;SDS011;9019;48.132;-1.210;2022-07-23T09:32:42;8.90;;;5.28;;
17790;SDS011;9019;48.132;-1.210;2022-07-23T09:35:09;8.02;;;4.50;;
17790;SDS011;9019;48.132;-1.210;2022-07-23T09:37:38;6.32;;;4.20;;
17790;SDS011;9019;48.132;-1.210;2022-07-23T09:40:06;6.97;;;4.00;;
17790;SDS011;9019;48.132;-1.210;2022-07-23T09:42:33;6.20;;;3.83;;
17790;SDS011;9019;48.132;-1.210;2022-07-23T09:45:01;5.63;;;4.10;;
17790;SDS011;9019;48.132;-1.210;2022-07-23T09:47:29;5.90;;;3.88;;
17790;SDS011;9019;48.132;-1.210;2022-07-23T09:49:57;7.63;;;4.00;;
17790;SDS011;9019;48.132;-1.210;2022-07-23T09:52:26;7.85;;;4.25;;
17790;SDS011;9019;48.132;-1.210;2022-07-23T09:54:58;6.75;;;4.35;;
17790;SDS011;9019;48.132;-1.210;2022-07-23T09:57:26;7.22;;;3.75;;
17790;SDS011;9019;48.132;-1.210;2022-07-23T09:59:53;8.93;;;4.05;;
17790;SDS011;9019;48.132;-1.210;2022-07-23T10:02:23;8.57;;;4.40;;
17790;SDS011;9019;48.132;-1.210;2022-07-23T10:04:51;6.82;;;4.07;;
17790;SDS011;9019;48.132;-1.210;2022-07-23T10:07:20;6.78;;;3.92;;
17790;SDS011;9019;48.132;-1.210;2022-07-23T10:09:48;6.75;;;3.72;;
17790;SDS011;9019;48.132;-1.210;2022-07-23T10:12:19;6.50;;;4.07;;
17790;SDS011;9019;48.132;-1.210;2022-07-23T10:15:07;5.78;;;3.50;;
17790;SDS011;9019;48.132;-1.210;2022-07-23T10:17:35;7.97;;;3.47;;
17790;SDS011;9019;48.132;-1.210;2022-07-23T10:20:02;8.00;;;3.28;;
17790;SDS011;9019;48.132;-1.210;2022-07-23T10:22:30;5.70;;;3.85;;
17790;SDS011;9019;48.132;-1.210;2022-07-23T10:25:04;6.50;;;3.72;;
17790;SDS011;9019;48.132;-1.210;2022-07-23T10:27:39;5.70;;;3.88;;
17790;SDS011;9019;48.132;-1.210;2022-07-23T10:30:10;6.70;;;3.55;;
17790;SDS011;9019;48.132;-1.210;2022-07-23T10:32:42;4.60;;;3.10;;
17790;SDS011;9019;48.132;-1.210;2022-07-23T10:35:12;6.30;;;3.40;;
17790;SDS011;9019;48.132;-1.210;2022-07-23T10:37:43;4.53;;;3.20;;
17790;SDS011;9019;48.132;-1.210;2022-07-23T10:40:14;7.35;;;3.22;;
17790;SDS011;9019;48.132;-1.210;2022-07-23T10:42:44;5.30;;;3.50;;
17790;SDS011;9019;48.132;-1.210;2022-07-23T10:45:28;6.00;;;3.30;;
17790;SDS011;9019;48.132;-1.210;2022-07-23T10:47:55;7.75;;;4.25;;
17790;SDS011;9019;48.132;-1.210;2022-07-23T10:50:24;6.78;;;3.40;;
17790;SDS011;9019;48.132;-1.210;2022-07-23T10:53:08;6.25;;;3.63;;
17790;SDS011;9019;48.132;-1.210;2022-07-23T10:55:41;5.15;;;3.13;;
17790;SDS011;9019;48.132;-1.210;2022-07-23T10:58:10;6.05;;;2.85;;
17790;SDS011;9019;48.132;-1.210;2022-07-23T11:00:37;4.32;;;3.17;;
17790;SDS011;9019;48.132;-1.210;2022-07-23T11:05:53;4.78;;;3.10;;
17790;SDS011;9019;48.132;-1.210;2022-07-23T11:08:20;4.80;;;2.83;;
17790;SDS011;9019;48.132;-1.210;2022-07-23T11:16:26;4.43;;;2.65;;
17790;SDS011;9019;48.132;-1.210;2022-07-23T11:18:59;4.32;;;2.42;;
17790;SDS011;9019;48.132;-1.210;2022-07-23T11:21:49;6.22;;;2.80;;
17790;SDS011;9019;48.132;-1.210;2022-07-23T11:24:20;3.42;;;2.70;;
17790;SDS011;9019;48.132;-1.210;2022-07-23T11:26:55;4.85;;;3.00;;
17790;SDS011;9019;48.132;-1.210;2022-07-23T11:29:38;5.95;;;2.90;;
17790;SDS011;9019;48.132;-1.210;2022-07-23T11:32:07;4.72;;;2.50;;
17790;SDS011;9019;48.132;-1.210;2022-07-23T11:34:38;3.88;;;2.85;;
17790;SDS011;9019;48.132;-1.210;2022-07-23T11:37:07;3.05;;;2.63;;
17790;SDS011;9019;48.132;-1.210;2022-07-23T11:39:35;4.05;;;2.50;;
17790;SDS011;9019;48.132;-1.210;2022-07-23T11:42:03;6.25;;;2.90;;
17790;SDS011;9019;48.132;-1.210;2022-07-23T11:44:31;4.95;;;2.78;;
17790;SDS011;9019;48.132;-1.210;2022-07-23T11:46:59;4.93;;;2.70;;
17790;SDS011;9019;48.132;-1.210;2022-07-23T11:49:28;3.72;;;2.53;;
17790;SDS011;9019;48.132;-1.210;2022-07-23T11:52:02;5.15;;;2.60;;
17790;SDS011;9019;48.132;-1.210;2022-07-23T11:54:30;4.70;;;2.58;;
17790;SDS011;9019;48.132;-1.210;2022-07-23T11:56:57;4.50;;;2.50;;
17790;SDS011;9019;48.132;-1.210;2022-07-23T11:59:24;4.95;;;2.60;;
17790;SDS011;9019;48.132;-1.210;2022-07-23T12:01:56;3.30;;;2.60;;
17790;SDS011;9019;48.132;-1.210;2022-07-23T12:04:24;3.65;;;2.67;;
17790;SDS011;9019;48.132;-1.210;2022-07-23T12:06:53;3.17;;;2.35;;
17790;SDS011;9019;48.132;-1.210;2022-07-23T12:09:20;7.93;;;2.60;;
17790;SDS011;9019;48.132;-1.210;2022-07-23T12:11:57;3.65;;;2.50;;
17790;SDS011;9019;48.132;-1.210;2022-07-23T12:14:24;3.75;;;2.55;;
17790;SDS011;9019;48.132;-1.210;2022-07-23T12:17:07;3.78;;;2.30;;
17790;SDS011;9019;48.132;-1.210;2022-07-23T12:19:34;4.47;;;2.08;;
17790;SDS011;9019;48.132;-1.210;2022-07-23T12:22:02;4.93;;;2.38;;
17790;SDS011;9019;48.132;-1.210;2022-07-23T12:24:30;3.63;;;2.40;;
17790;SDS011;9019;48.132;-1.210;2022-07-23T12:27:09;4.95;;;2.22;;
17790;SDS011;9019;48.132;-1.210;2022-07-23T12:29:38;4.30;;;2.60;;
17790;SDS011;9019;48.132;-1.210;2022-07-23T12:32:16;4.88;;;2.50;;
17790;SDS011;9019;48.132;-1.210;2022-07-23T12:34:43;3.20;;;2.08;;
17790;SDS011;9019;48.132;-1.210;2022-07-23T12:37:25;4.50;;;2.42;;
17790;SDS011;9019;48.132;-1.210;2022-07-23T12:39:52;4.35;;;2.22;;
17790;SDS011;9019;48.132;-1.210;2022-07-23T12:42:19;2.85;;;2.40;;
17790;SDS011;9019;48.132;-1.210;2022-07-23T12:45:03;3.10;;;2.30;;
17790;SDS011;9019;48.132;-1.210;2022-07-23T12:47:30;4.47;;;2.28;;
17790;SDS011;9019;48.132;-1.210;2022-07-23T12:50:30;2.85;;;2.10;;
17790;SDS011;9019;48.132;-1.210;2022-07-23T12:53:03;5.38;;;2.30;;
17790;SDS011;9019;48.132;-1.210;2022-07-23T12:55:30;3.05;;;2.08;;
17790;SDS011;9019;48.132;-1.210;2022-07-23T12:58:02;4.13;;;2.42;;
17790;SDS011;9019;48.132;-1.210;2022-07-23T13:00:30;3.30;;;2.10;;
17790;SDS011;9019;48.132;-1.210;2022-07-23T13:02:58;3.60;;;2.15;;
17790;SDS011;9019;48.132;-1.210;2022-07-23T13:05:25;2.80;;;1.85;;
17790;SDS011;9019;48.132;-1.210;2022-07-23T13:07:52;2.72;;;1.80;;
17790;SDS011;9019;48.132;-1.210;2022-07-23T13:10:21;2.63;;;2.20;;
17790;SDS011;9019;48.132;-1.210;2022-07-23T13:12:48;3.47;;;2.22;;
17790;SDS011;9019;48.132;-1.210;2022-07-23T13:15:15;3.78;;;2.15;;
17790;SDS011;9019;48.132;-1.210;2022-07-23T13:17:42;3.20;;;2.17;;
17790;SDS011;9019;48.132;-1.210;2022-07-23T13:23:14;2.63;;;2.03;;
17790;SDS011;9019;48.132;-1.210;2022-07-23T13:25:43;3.90;;;1.98;;
17790;SDS011;9019;48.132;-1.210;2022-07-23T13:28:11;6.25;;;1.90;;
17790;SDS011;9019;48.132;-1.210;2022-07-23T13:30:38;5.20;;;2.00;;
17790;SDS011;9019;48.132;-1.210;2022-07-23T13:33:06;3.13;;;2.15;;
17790;SDS011;9019;48.132;-1.210;2022-07-23T13:35:34;3.72;;;1.90;;
17790;SDS011;9019;48.132;-1.210;2022-07-23T13:38:02;2.75;;;2.00;;
17790;SDS011;9019;48.132;-1.210;2022-07-23T13:40:29;4.28;;;2.00;;
17790;SDS011;9019;48.132;-1.210;2022-07-23T13:42:58;2.70;;;1.95;;
17790;SDS011;9019;48.132;-1.210;2022-07-23T13:45:26;1.83;;;1.70;;
17790;SDS011;9019;48.132;-1.210;2022-07-23T13:48:04;3.35;;;1.75;;
17790;SDS011;9019;48.132;-1.210;2022-07-23T13:50:41;6.28;;;1.90;;
17790;SDS011;9019;48.132;-1.210;2022-07-23T13:53:11;2.83;;;1.83;;
17790;SDS011;9019;48.132;-1.210;2022-07-23T13:55:39;3.55;;;2.00;;
17790;SDS011;9019;48.132;-1.210;2022-07-23T13:58:09;2.20;;;1.92;;
17790;SDS011;9019;48.132;-1.210;2022-07-23T14:00:37;4.65;;;1.80;;
17790;SDS011;9019;48.132;-1.210;2022-07-23T14:03:04;2.92;;;1.80;;
17790;SDS011;9019;48.132;-1.210;2022-07-23T14:05:32;3.20;;;1.75;;
17790;SDS011;9019;48.132;-1.210;2022-07-23T14:07:59;2.92;;;1.80;;
17790;SDS011;9019;48.132;-1.210;2022-07-23T14:10:26;1.83;;;1.60;;
17790;SDS011;9019;48.132;-1.210;2022-07-23T14:12:54;2.03;;;1.70;;
17790;SDS011;9019;48.132;-1.210;2022-07-23T14:15:24;3.55;;;2.00;;
17790;SDS011;9019;48.132;-1.210;2022-07-23T14:17:53;2.92;;;1.90;;
17790;SDS011;9019;48.132;-1.210;2022-07-23T14:20:24;4.53;;;2.00;;
17790;SDS011;9019;48.132;-1.210;2022-07-23T14:23:05;2.80;;;1.90;;
17790;SDS011;9019;48.132;-1.210;2022-07-23T14:25:32;3.30;;;1.73;;
17790;SDS011;9019;48.132;-1.210;2022-07-23T14:28:00;2.90;;;1.85;;
17790;SDS011;9019;48.132;-1.210;2022-07-23T14:30:28;3.70;;;1.60;;
17790;SDS011;9019;48.132;-1.210;2022-07-23T14:32:55;3.60;;;1.90;;
17790;SDS011;9019;48.132;-1.210;2022-07-23T14:35:23;4.68;;;1.90;;
17790;SDS011;9019;48.132;-1.210;2022-07-23T14:37:50;3.08;;;1.95;;
17790;SDS011;9019;48.132;-1.210;2022-07-23T14:40:17;2.83;;;1.88;;
17790;SDS011;9019;48.132;-1.210;2022-07-23T14:42:45;3.40;;;1.98;;
17790;SDS011;9019;48.132;-1.210;2022-07-23T14:45:12;2.92;;;1.73;;
17790;SDS011;9019;48.132;-1.210;2022-07-23T14:47:40;5.32;;;2.08;;
17790;SDS011;9019;48.132;-1.210;2022-07-23T14:50:08;2.85;;;1.90;;
17790;SDS011;9019;48.132;-1.210;2022-07-23T14:52:35;2.38;;;1.70;;
17790;SDS011;9019;48.132;-1.210;2022-07-23T14:55:03;2.80;;;1.52;;
17790;SDS011;9019;48.132;-1.210;2022-07-23T14:57:30;1.77;;;1.50;;
17790;SDS011;9019;48.132;-1.210;2022-07-23T14:59:57;2.42;;;1.67;;